createdAt,value
2018-01-11T00:01:11.657Z,5.77
2018-01-11T00:03:39.741Z,4.60
2018-01-11T00:06:08.589Z,6.10
2018-01-11T00:08:36.318Z,5.70
2018-01-11T00:11:04.027Z,5.53
2018-01-11T00:13:32.515Z,5.63
2018-01-11T00:16:01.553Z,5.30
2018-01-11T00:18:30.038Z,4.80
2018-01-11T00:20:57.744Z,5.30
2018-01-11T00:23:25.478Z,5.40
2018-01-11T00:25:54.222Z,5.77
2018-01-11T00:28:22.850Z,5.70
2018-01-11T00:30:50.897Z,6.00
2018-01-11T00:33:18.898Z,5.80
2018-01-11T00:35:46.568Z,5.20
2018-01-11T00:38:15.238Z,4.93
2018-01-11T00:40:43.800Z,4.80
2018-01-11T00:43:11.625Z,5.17
2018-01-11T00:45:39.323Z,4.77
2018-01-11T00:48:07.763Z,5.23
2018-01-11T00:50:35.420Z,5.53
2018-01-11T00:53:03.191Z,5.37
2018-01-11T00:55:30.893Z,5.90
2018-01-11T00:57:59.509Z,5.90
2018-01-11T01:00:27.151Z,6.40
2018-01-11T01:02:55.626Z,6.07
2018-01-11T01:05:24.117Z,5.70
2018-01-11T01:07:52.594Z,7.03
2018-01-11T01:10:24.016Z,7.23
2018-01-11T01:12:51.798Z,5.87
2018-01-11T01:15:20.265Z,5.73
2018-01-11T01:17:48.125Z,6.57
2018-01-11T01:20:15.962Z,7.27
2018-01-11T01:22:44.502Z,5.70
2018-01-11T01:25:13.009Z,5.23
2018-01-11T01:27:41.669Z,4.83
2018-01-11T01:30:09.512Z,6.60
2018-01-11T01:32:37.454Z,4.33
2018-01-11T01:35:05.579Z,4.80
2018-01-11T01:37:33.241Z,5.60
2018-01-11T01:40:01.035Z,6.80
2018-01-11T01:42:28.764Z,4.60
2018-01-11T01:44:56.799Z,4.50
2018-01-11T01:47:25.604Z,5.70
2018-01-11T01:49:53.285Z,5.63
2018-01-11T01:52:21.124Z,5.90
2018-01-11T01:54:49.861Z,5.20
2018-01-11T01:57:17.872Z,6.73
2018-01-11T01:59:46.806Z,4.83
2018-01-11T02:02:14.590Z,6.00
2018-01-11T02:04:42.411Z,5.90
2018-01-11T02:07:10.114Z,5.57
2018-01-11T02:09:37.877Z,6.00
2018-01-11T02:12:05.666Z,4.47
2018-01-11T02:14:34.164Z,4.00
2018-01-11T02:17:02.667Z,5.50
2018-01-11T02:19:30.758Z,5.50
2018-01-11T02:21:58.728Z,5.33
2018-01-11T02:24:26.456Z,5.57
2018-01-11T02:26:55.118Z,5.83
2018-01-11T02:29:23.344Z,5.40
2018-01-11T02:31:52.130Z,5.00
2018-01-11T02:34:19.827Z,5.40
2018-01-11T02:36:47.585Z,4.90
2018-01-11T02:39:15.306Z,5.70
2018-01-11T02:41:43.323Z,5.37
2018-01-11T02:44:11.080Z,5.40
2018-01-11T02:46:38.759Z,5.43
2018-01-11T02:49:06.696Z,5.37
2018-01-11T02:51:35.302Z,5.53
2018-01-11T02:54:03.017Z,5.10
2018-01-11T02:56:31.131Z,5.63
2018-01-11T02:58:58.984Z,5.80
2018-01-11T03:01:26.621Z,5.20
2018-01-11T03:03:54.751Z,5.93
2018-01-11T03:06:22.636Z,5.50
2018-01-11T03:08:50.780Z,4.90
2018-01-11T03:11:18.472Z,4.90
2018-01-11T03:13:46.424Z,5.97
2018-01-11T03:16:14.049Z,5.23
2018-01-11T03:18:42.555Z,5.13
2018-01-11T03:21:10.265Z,5.20
2018-01-11T03:23:38.310Z,5.50
2018-01-11T03:26:06.199Z,5.17
2018-01-11T03:28:34.012Z,4.77
2018-01-11T03:31:02.499Z,3.90
2018-01-11T03:33:30.955Z,3.50
2018-01-11T03:35:58.657Z,4.30
2018-01-11T03:38:26.452Z,4.33
2018-01-11T03:40:54.173Z,5.27
2018-01-11T03:43:22.899Z,4.53
2018-01-11T03:45:50.554Z,5.40
2018-01-11T03:48:18.285Z,4.30
2018-01-11T03:50:46.582Z,5.50
2018-01-11T03:53:14.306Z,4.30
2018-01-11T03:55:42.004Z,5.03
2018-01-11T03:58:10.458Z,5.03
2018-01-11T04:00:38.279Z,5.20
2018-01-11T04:03:06.188Z,5.63
2018-01-11T04:05:33.957Z,5.03
2018-01-11T04:08:02.418Z,5.23
2018-01-11T04:10:30.147Z,5.50
2018-01-11T04:12:57.848Z,6.00
2018-01-11T04:15:25.897Z,5.83
2018-01-11T04:17:54.141Z,4.90
2018-01-11T04:20:22.884Z,5.93
2018-01-11T04:22:50.820Z,5.73
2018-01-11T04:25:18.525Z,5.13
2018-01-11T04:27:46.466Z,4.93
2018-01-11T04:30:14.203Z,5.13
2018-01-11T04:32:43.024Z,5.23
2018-01-11T04:35:10.692Z,5.80
2018-01-11T04:37:38.754Z,5.07
2018-01-11T04:40:06.505Z,5.63
2018-01-11T04:42:35.231Z,5.77
2018-01-11T04:45:04.206Z,5.70
2018-01-11T04:47:32.078Z,5.70
2018-01-11T04:50:00.143Z,6.13
2018-01-11T04:52:28.839Z,5.60
2018-01-11T04:54:56.609Z,6.10
2018-01-11T04:57:24.689Z,5.80
2018-01-11T04:59:53.362Z,6.20
2018-01-11T05:02:21.851Z,5.97
2018-01-11T05:04:49.505Z,5.60
2018-01-11T05:07:17.481Z,6.20
2018-01-11T05:09:45.226Z,5.70
2018-01-11T05:12:13.647Z,6.10
2018-01-11T05:14:41.327Z,5.57
2018-01-11T05:17:09.040Z,5.97
2018-01-11T05:19:36.761Z,5.40
2018-01-11T05:22:04.465Z,5.67
2018-01-11T05:24:32.932Z,6.20
2018-01-11T05:27:01.044Z,6.20
2018-01-11T05:29:28.830Z,5.10
2018-01-11T05:31:56.565Z,5.50
2018-01-11T05:34:25.023Z,5.20
2018-01-11T05:36:52.831Z,6.07
2018-01-11T05:39:21.375Z,5.40
2018-01-11T05:41:49.995Z,5.57
2018-01-11T05:44:18.544Z,5.07
2018-01-11T05:46:47.266Z,5.90
2018-01-11T05:49:16.163Z,5.73
2018-01-11T05:51:43.816Z,5.97
2018-01-11T05:54:11.536Z,6.07
2018-01-11T05:56:39.559Z,5.87
2018-01-11T05:59:08.079Z,6.23
2018-01-11T06:01:35.798Z,6.10
2018-01-11T06:04:03.515Z,6.00
2018-01-11T06:06:31.565Z,5.80
2018-01-11T06:08:59.632Z,5.80
2018-01-11T06:11:28.162Z,6.23
2018-01-11T06:13:55.838Z,5.93
2018-01-11T06:16:24.677Z,6.10
2018-01-11T06:18:53.188Z,5.77
2018-01-11T06:21:21.054Z,5.77
2018-01-11T06:23:48.759Z,6.10
2018-01-11T06:26:17.520Z,6.63
2018-01-11T06:28:45.324Z,5.30
2018-01-11T06:31:13.785Z,6.13
2018-01-11T06:33:41.487Z,5.80
2018-01-11T06:36:09.362Z,5.20
2018-01-11T06:38:36.963Z,5.97
2018-01-11T06:41:04.682Z,6.13
2018-01-11T06:43:32.580Z,5.50
2018-01-11T06:46:00.686Z,6.30
2018-01-11T06:48:29.138Z,6.00
2018-01-11T06:50:56.874Z,6.70
2018-01-11T06:53:24.554Z,6.37
2018-01-11T06:55:52.462Z,5.17
2018-01-11T06:58:21.215Z,5.73
2018-01-11T07:00:48.926Z,5.47
2018-01-11T07:03:17.457Z,6.07
2018-01-11T07:05:45.124Z,6.03
2018-01-11T07:08:12.814Z,6.20
2018-01-11T07:10:40.501Z,6.10
2018-01-11T07:13:09.229Z,6.50
2018-01-11T07:15:37.947Z,6.30
2018-01-11T07:18:05.625Z,6.63
2018-01-11T07:20:33.307Z,6.13
2018-01-11T07:23:01.720Z,5.77
2018-01-11T07:25:29.384Z,5.73
2018-01-11T07:27:57.278Z,6.73
2018-01-11T07:30:24.961Z,5.97
2018-01-11T07:32:52.675Z,6.67
2018-01-11T07:35:20.383Z,5.43
2018-01-11T07:37:48.055Z,6.20
2018-01-11T07:40:15.666Z,5.83
2018-01-11T07:42:44.043Z,6.30
2018-01-11T07:45:12.662Z,6.00
2018-01-11T07:47:40.582Z,6.30
2018-01-11T07:50:09.119Z,6.57
2018-01-11T07:52:36.733Z,6.27
2018-01-11T07:55:05.444Z,5.93
2018-01-11T07:57:33.530Z,6.10
2018-01-11T08:00:02.106Z,6.73
2018-01-11T08:02:30.178Z,6.53
2018-01-11T08:05:00.056Z,6.77
2018-01-11T08:07:27.728Z,6.10
2018-01-11T08:09:57.531Z,6.80
2018-01-11T08:12:25.551Z,6.27
2018-01-11T08:14:54.078Z,5.87
2018-01-11T08:17:21.813Z,5.53
2018-01-11T08:19:49.517Z,4.87
2018-01-11T08:22:17.441Z,5.43
2018-01-11T08:24:45.961Z,5.70
2018-01-11T08:27:13.927Z,5.93
2018-01-11T08:29:41.640Z,5.20
2018-01-11T08:32:09.269Z,5.73
2018-01-11T08:34:36.889Z,6.50
2018-01-11T08:37:04.847Z,6.33
2018-01-11T08:39:33.436Z,6.60
2018-01-11T08:42:01.120Z,4.57
2018-01-11T08:44:29.163Z,4.77
2018-01-11T08:46:58.058Z,5.13
2018-01-11T08:49:26.540Z,4.87
2018-01-11T08:51:54.445Z,4.90
2018-01-11T08:54:22.321Z,4.77
2018-01-11T08:56:50.468Z,4.73
2018-01-11T08:59:18.175Z,5.47
2018-01-11T09:01:45.848Z,5.80
2018-01-11T09:04:13.708Z,5.60
2018-01-11T09:06:41.347Z,5.80
2018-01-11T09:09:09.196Z,5.60
2018-01-11T09:11:36.931Z,6.10
2018-01-11T09:14:05.847Z,5.80
2018-01-11T09:16:34.384Z,5.70
2018-01-11T09:19:02.024Z,6.10
2018-01-11T09:21:29.717Z,6.37
2018-01-11T09:23:58.108Z,5.07
2018-01-11T09:26:26.117Z,5.87
2018-01-11T09:28:54.936Z,5.60
2018-01-11T09:31:22.885Z,5.57
2018-01-11T09:33:50.502Z,5.40
2018-01-11T09:36:18.256Z,6.00
2018-01-11T09:38:45.951Z,6.10
2018-01-11T09:41:14.457Z,3.80
2018-01-11T09:43:42.145Z,4.43
2018-01-11T09:46:10.291Z,6.10
2018-01-11T09:48:38.291Z,3.93
2018-01-11T09:51:07.163Z,5.40
2018-01-11T09:53:36.833Z,5.00
2018-01-11T09:56:04.469Z,5.80
2018-01-11T09:58:32.122Z,6.57
2018-01-11T10:01:00.060Z,10.07
2018-01-11T10:03:28.711Z,18.37
2018-01-11T10:05:56.720Z,19.83
2018-01-11T10:08:25.811Z,16.73
2018-01-11T10:13:38.880Z,13.93
2018-01-11T10:16:07.036Z,12.40
2018-01-11T10:18:36.447Z,11.07
2018-01-11T10:21:05.848Z,9.33
2018-01-11T10:23:35.274Z,7.87
2018-01-11T10:26:05.350Z,8.00
2018-01-11T10:28:34.738Z,7.70
2018-01-11T10:31:04.781Z,7.20
2018-01-11T10:33:34.196Z,9.53
2018-01-11T10:36:03.466Z,7.50
2018-01-11T10:38:32.792Z,8.00
2018-01-11T10:41:02.415Z,7.67
2018-01-11T10:43:31.508Z,7.47
2018-01-11T10:46:00.625Z,7.27
2018-01-11T10:48:28.942Z,6.73
2018-01-11T10:50:58.025Z,7.60
2018-01-11T10:53:26.227Z,7.30
2018-01-11T10:55:54.531Z,6.27
2018-01-11T10:58:22.900Z,6.93
2018-01-11T11:00:50.989Z,7.77
2018-01-11T11:03:19.396Z,7.70
2018-01-11T11:05:47.613Z,6.10
2018-01-11T11:08:15.686Z,7.30
2018-01-11T11:10:43.750Z,9.60
2018-01-11T11:13:11.744Z,8.93
2018-01-11T11:15:40.098Z,7.00
2018-01-11T11:18:08.225Z,6.97
2018-01-11T11:20:36.278Z,7.50
2018-01-11T11:23:04.378Z,6.30
2018-01-11T11:25:33.634Z,5.90
2018-01-11T11:28:01.715Z,7.30
2018-01-11T11:30:29.793Z,6.20
2018-01-11T11:32:57.941Z,4.50
2018-01-11T11:35:26.014Z,6.53
2018-01-11T11:37:53.980Z,7.40
2018-01-11T11:40:23.462Z,6.60
2018-01-11T11:42:52.414Z,5.03
2018-01-11T11:45:20.518Z,6.60
2018-01-11T11:47:49.316Z,7.53
2018-01-11T11:50:18.193Z,7.17
2018-01-11T11:52:46.449Z,4.10
2018-01-11T11:55:14.538Z,4.87
2018-01-11T11:57:42.735Z,4.80
2018-01-11T12:00:11.504Z,5.63
2018-01-11T12:02:40.517Z,5.13
2018-01-11T12:05:09.412Z,4.80
2018-01-11T12:07:37.439Z,5.03
2018-01-11T12:10:05.450Z,6.87
2018-01-11T12:12:33.603Z,6.33
2018-01-11T12:15:01.665Z,6.27
2018-01-11T12:17:30.287Z,6.00
2018-01-11T12:19:58.438Z,6.37
2018-01-11T12:22:26.734Z,6.80
2018-01-11T12:24:55.935Z,5.73
2018-01-11T12:27:24.856Z,4.97
2018-01-11T12:29:52.926Z,7.10
2018-01-11T12:32:22.882Z,5.13
2018-01-11T12:34:50.964Z,4.53
2018-01-11T12:37:18.964Z,4.80
2018-01-11T12:39:47.853Z,4.90
2018-01-11T12:42:16.662Z,3.93
2018-01-11T12:44:44.784Z,5.03
2018-01-11T12:47:12.795Z,5.00
2018-01-11T12:49:41.903Z,4.43
2018-01-11T12:52:09.984Z,5.47
2018-01-11T12:54:39.880Z,5.30
2018-01-11T12:57:07.938Z,5.10
2018-01-11T12:59:36.755Z,5.20
2018-01-11T13:02:04.893Z,5.50
2018-01-11T13:04:32.936Z,6.20
2018-01-11T13:07:01.686Z,5.90
2018-01-11T13:09:29.855Z,6.30
2018-01-11T13:11:58.916Z,4.97
2018-01-11T13:14:30.017Z,5.83
2018-01-11T13:16:58.893Z,5.33
2018-01-11T13:19:28.094Z,6.07
2018-01-11T13:21:57.084Z,5.77
2018-01-11T13:24:25.259Z,5.73
2018-01-11T13:26:54.639Z,6.10
2018-01-11T13:29:22.620Z,6.73
2018-01-11T13:31:50.699Z,6.10
2018-01-11T13:34:18.753Z,7.80
2018-01-11T13:36:47.280Z,6.33
2018-01-11T13:39:15.804Z,4.27
2018-01-11T13:41:44.130Z,4.47
2018-01-11T13:44:12.311Z,4.40
2018-01-11T13:46:41.288Z,4.03
2018-01-11T13:49:09.453Z,4.70
2018-01-11T13:51:37.475Z,3.87
2018-01-11T13:54:06.210Z,5.00
2018-01-11T13:56:35.542Z,4.80
2018-01-11T13:59:04.346Z,4.90
2018-01-11T14:01:32.425Z,5.90
2018-01-11T14:04:00.786Z,6.33
2018-01-11T14:06:28.979Z,5.90
2018-01-11T14:08:57.022Z,5.33
2018-01-11T14:11:25.911Z,5.83
2018-01-11T14:13:54.128Z,6.57
2018-01-11T14:16:22.505Z,6.27
2018-01-11T14:18:50.553Z,6.17
2018-01-11T14:21:19.544Z,7.20
2018-01-11T14:23:48.548Z,6.20
2018-01-11T14:26:17.348Z,6.93
2018-01-11T14:28:45.343Z,6.23
2018-01-11T14:31:13.356Z,5.40
2018-01-11T14:33:41.401Z,5.60
2018-01-11T14:36:09.416Z,5.87
2018-01-11T14:38:39.764Z,6.57
2018-01-11T14:41:08.687Z,6.77
2018-01-11T14:43:36.848Z,7.73
2018-01-11T14:46:05.650Z,6.13
2018-01-11T14:48:33.670Z,6.27
2018-01-11T14:51:01.686Z,8.00
2018-01-11T14:53:29.697Z,5.67
2018-01-11T14:55:58.088Z,5.30
2018-01-11T14:58:27.367Z,6.40
2018-01-11T15:00:55.385Z,6.77
2018-01-11T15:03:24.463Z,7.77
2018-01-11T15:05:53.267Z,6.37
2018-01-11T15:08:22.486Z,4.10
2018-01-11T15:10:51.261Z,4.20
2018-01-11T15:13:20.359Z,5.53
2018-01-11T15:15:48.600Z,4.40
2018-01-11T15:18:16.829Z,5.83
2018-01-11T15:20:45.770Z,8.13
2018-01-11T15:23:13.969Z,6.30
2018-01-11T15:25:41.987Z,5.67
2018-01-11T15:28:10.032Z,6.90
2018-01-11T15:30:39.108Z,6.80
2018-01-11T15:33:07.123Z,5.67
2018-01-11T15:35:35.146Z,8.40
2018-01-11T15:38:03.346Z,7.63
2018-01-11T15:40:32.655Z,5.30
2018-01-11T15:43:01.611Z,4.50
2018-01-11T15:45:30.846Z,5.70
2018-01-11T15:47:59.880Z,5.97
2018-01-11T15:50:27.871Z,6.53
2018-01-11T15:52:56.190Z,7.40
2018-01-11T15:55:24.230Z,6.67
2018-01-11T15:57:52.309Z,5.13
2018-01-11T16:00:20.455Z,5.40
2018-01-11T16:02:48.683Z,6.20
2018-01-11T16:05:17.800Z,5.50
2018-01-11T16:07:45.763Z,6.83
2018-01-11T16:10:14.916Z,7.60
2018-01-11T16:12:43.342Z,5.77
2018-01-11T16:15:11.729Z,5.80
2018-01-11T16:17:40.677Z,7.73
2018-01-11T16:20:08.765Z,6.10
2018-01-11T16:22:36.767Z,5.90
2018-01-11T16:25:05.656Z,6.70
2018-01-11T16:27:33.786Z,8.03
2018-01-11T16:30:01.930Z,6.47
2018-01-11T16:32:29.994Z,6.53
2018-01-11T16:34:58.109Z,6.43
2018-01-11T16:37:26.164Z,6.90
2018-01-11T16:39:54.215Z,7.70
2018-01-11T16:42:22.982Z,6.93
2018-01-11T16:44:51.104Z,7.03
2018-01-11T16:47:19.174Z,6.53
2018-01-11T16:49:47.258Z,6.50
2018-01-11T16:52:15.387Z,7.73
2018-01-11T16:54:44.155Z,7.43
2018-01-11T16:57:12.459Z,5.70
2018-01-11T16:59:41.647Z,4.70
2018-01-11T17:02:10.637Z,5.37
2018-01-11T17:04:38.673Z,7.50
2018-01-11T17:07:07.097Z,5.07
2018-01-11T17:09:35.491Z,6.90
2018-01-11T17:12:04.530Z,7.70
2018-01-11T17:14:32.588Z,7.30
2018-01-11T17:17:01.647Z,5.60
2018-01-11T17:19:29.874Z,6.00
2018-01-11T17:21:57.977Z,5.60
2018-01-11T17:24:27.626Z,6.40
2018-01-11T17:26:56.105Z,7.70
2018-01-11T17:29:24.966Z,6.20
2018-01-11T17:31:52.956Z,4.37
2018-01-11T17:34:21.026Z,5.60
2018-01-11T17:36:50.023Z,6.70
2018-01-11T17:39:18.205Z,5.97
2018-01-11T17:41:46.258Z,7.77
2018-01-11T17:44:14.416Z,6.27
2018-01-11T17:46:43.202Z,6.03
2018-01-11T17:49:11.384Z,7.03
2018-01-11T17:51:39.433Z,7.80
2018-01-11T17:54:07.728Z,6.07
2018-01-11T17:56:36.942Z,6.73
2018-01-11T17:59:04.926Z,6.47
2018-01-11T18:01:33.316Z,7.40
2018-01-11T18:04:01.409Z,6.03
2018-01-11T18:06:29.440Z,6.73
2018-01-11T18:08:57.529Z,7.13
2018-01-11T18:11:26.638Z,5.33
2018-01-11T18:13:55.227Z,6.03
2018-01-11T18:16:24.126Z,6.40
2018-01-11T18:18:52.909Z,7.20
2018-01-11T18:21:21.011Z,6.17
2018-01-11T18:23:49.379Z,6.90
2018-01-11T18:26:17.731Z,8.50
2018-01-11T18:28:47.276Z,7.70
2018-01-11T18:31:15.243Z,5.47
2018-01-11T18:33:43.428Z,5.63
2018-01-11T18:36:11.573Z,7.10
2018-01-11T18:38:39.726Z,6.40
2018-01-11T18:41:07.873Z,7.00
2018-01-11T18:43:36.194Z,6.53
2018-01-11T18:46:04.334Z,7.43
2018-01-11T18:48:32.379Z,5.63
2018-01-11T18:51:00.497Z,5.50
2018-01-11T18:53:28.796Z,5.23
2018-01-11T18:55:56.909Z,6.37
2018-01-11T18:58:24.932Z,7.30
2018-01-11T19:00:52.997Z,5.90
2018-01-11T19:03:21.141Z,5.63
2018-01-11T19:05:49.568Z,6.00
2018-01-11T19:08:18.682Z,6.40
2018-01-11T19:10:46.852Z,6.50
2018-01-11T19:13:15.725Z,6.10
2018-01-11T19:15:44.850Z,5.83
2018-01-11T19:18:13.047Z,7.30
2018-01-11T19:20:41.375Z,6.20
2018-01-11T19:23:09.416Z,5.80
2018-01-11T19:25:37.478Z,6.13
2018-01-11T19:28:06.632Z,6.37
2018-01-11T19:30:36.040Z,6.83
2018-01-11T19:33:04.178Z,7.13
2018-01-11T19:35:32.372Z,6.40
2018-01-11T19:38:00.561Z,6.50
2018-01-11T19:40:29.332Z,8.30
2018-01-11T19:42:58.470Z,5.77
2018-01-11T19:45:26.822Z,6.50
2018-01-11T19:47:54.931Z,6.03
2018-01-11T19:50:23.102Z,6.37
2018-01-11T19:52:51.125Z,6.23
2018-01-11T19:55:19.187Z,6.07
2018-01-11T19:57:47.521Z,7.13
2018-01-11T20:00:15.740Z,6.33
2018-01-11T20:02:44.064Z,5.17
2018-01-11T20:05:13.393Z,6.50
2018-01-11T20:07:41.434Z,6.60
2018-01-11T20:10:10.027Z,6.70
2018-01-11T20:12:38.362Z,5.80
2018-01-11T20:15:06.412Z,5.10
2018-01-11T20:17:34.437Z,5.87
2018-01-11T20:20:02.739Z,6.50
2018-01-11T20:22:31.571Z,6.83
2018-01-11T20:24:59.686Z,6.97
2018-01-11T20:27:27.699Z,7.70
2018-01-11T20:29:55.826Z,6.30
2018-01-11T20:32:24.818Z,5.47
2018-01-11T20:34:53.644Z,4.83
2018-01-11T20:37:21.687Z,5.57
2018-01-11T20:39:49.642Z,6.27
2018-01-11T20:42:17.672Z,6.53
2018-01-11T20:44:45.924Z,7.00
2018-01-11T20:47:14.686Z,4.87
2018-01-11T20:49:42.773Z,5.37
2018-01-11T20:52:11.047Z,6.37
2018-01-11T20:54:39.853Z,5.73
2018-01-11T20:57:08.795Z,6.30
2018-01-11T20:59:36.927Z,6.40
2018-01-11T21:02:05.200Z,7.50
2018-01-11T21:04:33.343Z,5.97
2018-01-11T21:07:01.564Z,6.17
2018-01-11T21:09:30.541Z,5.20
2018-01-11T21:11:59.033Z,4.80
2018-01-11T21:14:27.769Z,4.60
2018-01-11T21:16:55.780Z,4.97
2018-01-11T21:19:24.624Z,6.00
2018-01-11T21:21:52.869Z,6.17
2018-01-11T21:24:20.922Z,4.73
2018-01-11T21:26:49.669Z,5.13
2018-01-11T21:29:17.778Z,4.70
2018-01-11T21:31:46.075Z,5.40
2018-01-11T21:34:15.096Z,6.20
2018-01-11T21:36:43.163Z,6.70
2018-01-11T21:39:11.265Z,6.70
2018-01-11T21:41:39.319Z,5.33
2018-01-11T21:44:07.378Z,5.23
2018-01-11T21:46:35.481Z,5.07
2018-01-11T21:49:03.646Z,6.13
2018-01-11T21:51:31.689Z,5.80
2018-01-11T21:53:59.769Z,5.20
2018-01-11T21:56:27.828Z,6.20
2018-01-11T21:58:56.565Z,6.40
2018-01-11T22:01:25.472Z,6.70
2018-01-11T22:03:53.906Z,7.00
2018-01-11T22:06:21.978Z,6.83
2018-01-11T22:08:51.217Z,7.43
2018-01-11T22:11:19.315Z,5.40
2018-01-11T22:13:47.338Z,5.60
2018-01-11T22:16:15.455Z,6.73
2018-01-11T22:18:43.471Z,4.97
2018-01-11T22:21:11.742Z,5.03
2018-01-11T22:23:39.873Z,5.73
2018-01-11T22:26:08.199Z,6.33
2018-01-11T22:28:37.195Z,6.23
2018-01-11T22:31:05.988Z,5.97
2018-01-11T22:33:34.278Z,6.17
2018-01-11T22:36:02.854Z,6.33
2018-01-11T22:38:31.009Z,4.90
2018-01-11T22:40:59.323Z,4.77
2018-01-11T22:43:27.660Z,4.93
2018-01-11T22:45:55.962Z,4.67
2018-01-11T22:48:24.990Z,5.40
2018-01-11T22:50:53.358Z,5.43
2018-01-11T22:53:23.773Z,5.83
2018-01-11T22:55:52.054Z,5.37
2018-01-11T22:58:20.300Z,5.50
2018-01-11T23:00:49.059Z,5.67
2018-01-11T23:03:18.213Z,5.90
2018-01-11T23:05:46.448Z,6.00
2018-01-11T23:08:14.554Z,5.73
2018-01-11T23:10:42.629Z,6.10
2018-01-11T23:13:10.668Z,5.90
2018-01-11T23:15:38.884Z,6.30
2018-01-11T23:18:07.768Z,6.40
2018-01-11T23:20:36.156Z,6.30
2018-01-11T23:23:04.237Z,5.80
2018-01-11T23:25:32.387Z,5.33
2018-01-11T23:28:01.321Z,5.37
2018-01-11T23:30:29.570Z,4.60
2018-01-11T23:32:57.627Z,5.60
2018-01-11T23:35:25.824Z,5.60
2018-01-11T23:37:54.342Z,5.80
2018-01-11T23:40:22.690Z,4.50
2018-01-11T23:42:50.877Z,4.20
2018-01-11T23:45:18.918Z,4.17
2018-01-11T23:47:47.294Z,4.50
2018-01-11T23:50:15.702Z,4.33
2018-01-11T23:52:44.086Z,3.93
2018-01-11T23:55:12.276Z,4.20
2018-01-11T23:57:40.432Z,5.10
